createdAt,value
2023-01-13T00:01:23.722Z,101451.65
2023-01-13T00:03:50.963Z,101449.71
2023-01-13T00:06:21.408Z,101446.40
2023-01-13T00:08:50.187Z,101445.81
2023-01-13T00:11:17.831Z,101441.89
2023-01-13T00:13:44.575Z,101441.44
2023-01-13T00:16:12.595Z,101433.27
2023-01-13T00:18:39.335Z,101433.89
2023-01-13T00:21:14.730Z,101432.91
2023-01-13T00:23:42.122Z,101433.52
2023-01-13T00:26:17.650Z,101435.58
2023-01-13T00:28:44.441Z,101443.41
2023-01-13T00:31:17.573Z,101442.55
2023-01-13T00:33:45.130Z,101443.67
2023-01-13T00:36:14.195Z,101442.41
2023-01-13T00:38:43.135Z,101442.02
2023-01-13T00:41:12.980Z,101446.30
2023-01-13T00:43:40.384Z,101445.00
2023-01-13T00:46:09.057Z,101439.86
2023-01-13T00:48:36.761Z,101439.84
2023-01-13T00:51:12.186Z,101440.71
2023-01-13T00:53:41.497Z,101446.05
2023-01-13T00:56:18.125Z,101448.14
2023-01-13T00:58:46.158Z,101449.60
2023-01-13T01:01:16.234Z,101451.55
2023-01-13T01:03:43.005Z,101447.45
2023-01-13T01:06:12.248Z,101447.86
2023-01-13T01:08:39.273Z,101450.21
2023-01-13T01:11:11.704Z,101450.31
2023-01-13T01:13:38.855Z,101447.66
2023-01-13T01:16:08.981Z,101448.95
2023-01-13T01:18:37.750Z,101454.20
2023-01-13T01:21:05.845Z,101448.21
2023-01-13T01:23:33.731Z,101440.70
2023-01-13T01:26:07.126Z,101436.34
2023-01-13T01:28:34.138Z,101438.36
2023-01-13T01:31:02.106Z,101438.90
2023-01-13T01:33:28.942Z,101429.11
2023-01-13T01:35:55.504Z,101426.10
2023-01-13T01:38:23.570Z,101429.77
2023-01-13T01:40:50.245Z,101423.98
2023-01-13T01:43:36.974Z,101420.39
2023-01-13T01:46:04.597Z,101419.44
2023-01-13T01:48:40.528Z,101414.66
2023-01-13T01:51:12.178Z,101404.34
2023-01-13T01:53:39.459Z,101404.38
2023-01-13T01:56:09.342Z,101400.27
2023-01-13T01:58:45.654Z,101399.98
2023-01-13T02:01:14.282Z,101397.05
2023-01-13T02:03:45.235Z,101396.17
2023-01-13T02:06:13.549Z,101397.01
2023-01-13T02:08:41.417Z,101390.36
2023-01-13T02:11:30.970Z,101390.40
2023-01-13T02:13:57.817Z,101394.52
2023-01-13T02:16:24.950Z,101394.35
2023-01-13T02:19:15.712Z,101393.54
2023-01-13T02:21:54.412Z,101395.30
2023-01-13T02:24:48.886Z,101392.54
2023-01-13T02:28:00.272Z,101391.36
2023-01-13T02:31:01.410Z,101387.09
2023-01-13T02:33:49.471Z,101381.58
2023-01-13T02:36:35.534Z,101382.02
2023-01-13T02:39:17.375Z,101374.48
2023-01-13T02:42:28.029Z,101369.20
2023-01-13T02:45:03.289Z,101362.77
2023-01-13T02:47:35.730Z,101359.88
2023-01-13T02:50:11.066Z,101353.98
2023-01-13T02:52:43.887Z,101353.91
2023-01-13T02:55:19.185Z,101348.29
2023-01-13T02:57:48.410Z,101342.04
2023-01-13T03:00:17.070Z,101336.80
2023-01-13T03:02:43.860Z,101328.98
2023-01-13T03:05:15.424Z,101325.13
2023-01-13T03:07:57.483Z,101330.20
2023-01-13T03:10:33.614Z,101333.42
2023-01-13T03:13:24.030Z,101324.69
2023-01-13T03:16:13.409Z,101321.77
2023-01-13T03:18:52.938Z,101326.60
2023-01-13T03:21:40.869Z,101330.54
2023-01-13T03:24:12.006Z,101333.87
2023-01-13T03:26:51.869Z,101330.67
2023-01-13T03:29:28.069Z,101332.98
2023-01-13T03:32:21.755Z,101333.66
2023-01-13T03:34:59.659Z,101337.35
2023-01-13T03:37:33.991Z,101331.25
2023-01-13T03:40:07.614Z,101334.08
2023-01-13T03:42:36.774Z,101330.69
2023-01-13T03:45:12.597Z,101333.80
2023-01-13T03:47:49.463Z,101332.83
2023-01-13T03:50:24.450Z,101330.33
2023-01-13T03:53:05.247Z,101330.41
2023-01-13T03:55:36.637Z,101329.84
2023-01-13T03:58:14.212Z,101330.52
2023-01-13T04:00:59.818Z,101330.31
2023-01-13T04:03:32.217Z,101323.92
2023-01-13T04:06:09.696Z,101324.75
2023-01-13T04:08:40.125Z,101323.61
2023-01-13T04:11:14.734Z,101322.35
2023-01-13T04:13:44.772Z,101315.19
2023-01-13T04:16:12.281Z,101316.83
2023-01-13T04:18:40.109Z,101314.34
2023-01-13T04:21:07.925Z,101315.25
2023-01-13T04:23:34.575Z,101314.08
2023-01-13T04:26:01.307Z,101317.04
2023-01-13T04:28:27.979Z,101309.86
2023-01-13T04:30:54.564Z,101310.13
2023-01-13T04:33:21.443Z,101313.27
2023-01-13T04:35:48.995Z,101316.77
2023-01-13T04:38:19.035Z,101321.11
2023-01-13T04:40:46.174Z,101320.84
2023-01-13T04:43:13.420Z,101326.42
2023-01-13T04:45:40.052Z,101331.83
2023-01-13T04:48:06.794Z,101334.61
2023-01-13T04:50:33.520Z,101327.56
2023-01-13T04:53:01.376Z,101320.16
2023-01-13T04:55:29.621Z,101323.56
2023-01-13T04:58:02.179Z,101327.29
2023-01-13T05:00:28.983Z,101325.15
2023-01-13T05:02:55.695Z,101319.30
2023-01-13T05:05:22.220Z,101327.53
2023-01-13T05:07:48.911Z,101334.64
2023-01-13T05:10:15.646Z,101331.92
2023-01-13T05:13:01.089Z,101327.27
2023-01-13T05:15:46.682Z,101329.04
2023-01-13T05:18:13.459Z,101324.94
2023-01-13T05:20:40.028Z,101328.94
2023-01-13T05:23:25.241Z,101331.80
2023-01-13T05:25:51.965Z,101329.38
2023-01-13T05:28:18.596Z,101340.06
2023-01-13T05:30:47.294Z,101345.48
2023-01-13T05:33:16.666Z,101347.01
2023-01-13T05:35:45.660Z,101343.13
2023-01-13T05:38:13.179Z,101341.89
2023-01-13T05:40:59.709Z,101345.64
2023-01-13T05:43:27.312Z,101350.38
2023-01-13T05:45:59.829Z,101359.85
2023-01-13T05:48:29.987Z,101369.16
2023-01-13T05:50:57.134Z,101370.47
2023-01-13T05:53:24.853Z,101367.58
2023-01-13T05:55:52.351Z,101368.71
2023-01-13T05:58:20.972Z,101359.79
2023-01-13T06:00:47.999Z,101349.97
2023-01-13T06:03:16.324Z,101350.81
2023-01-13T06:05:43.701Z,101352.70
2023-01-13T06:08:10.403Z,101355.07
2023-01-13T06:10:37.194Z,101346.67
2023-01-13T06:13:04.407Z,101345.84
2023-01-13T06:15:32.082Z,101349.98
2023-01-13T06:17:58.835Z,101352.77
2023-01-13T06:20:25.519Z,101356.99
2023-01-13T06:22:54.312Z,101362.88
2023-01-13T06:25:46.789Z,101369.29
2023-01-13T06:28:13.690Z,101366.02
2023-01-13T06:30:48.058Z,101365.21
2023-01-13T06:33:18.653Z,101366.57
2023-01-13T06:35:52.948Z,101368.30
2023-01-13T06:38:23.840Z,101369.81
2023-01-13T06:40:50.512Z,101372.63
2023-01-13T06:43:17.787Z,101370.65
2023-01-13T06:45:47.306Z,101372.36
2023-01-13T06:48:15.095Z,101374.45
2023-01-13T06:50:42.457Z,101379.27
2023-01-13T06:53:09.911Z,101382.70
2023-01-13T06:55:36.977Z,101378.95
2023-01-13T06:58:04.222Z,101369.55
2023-01-13T07:00:32.488Z,101375.20
2023-01-13T07:03:09.094Z,101379.17
2023-01-13T07:05:35.716Z,101389.52
2023-01-13T07:08:02.503Z,101386.55
2023-01-13T07:10:30.021Z,101379.89
2023-01-13T07:13:16.946Z,101382.58
2023-01-13T07:15:56.510Z,101383.15
2023-01-13T07:18:23.325Z,101395.64
2023-01-13T07:20:57.240Z,101392.85
2023-01-13T07:23:24.940Z,101386.04
2023-01-13T07:25:51.662Z,101384.06
2023-01-13T07:28:18.248Z,101380.42
2023-01-13T07:30:45.009Z,101383.13
2023-01-13T07:33:11.601Z,101389.33
2023-01-13T07:35:38.279Z,101394.41
2023-01-13T07:38:04.874Z,101394.89
2023-01-13T07:40:31.661Z,101391.85
2023-01-13T07:43:17.025Z,101391.96
2023-01-13T07:45:43.694Z,101394.75
2023-01-13T07:48:10.324Z,101400.85
2023-01-13T07:50:37.027Z,101399.13
2023-01-13T07:53:04.076Z,101400.15
2023-01-13T07:55:30.932Z,101403.10
2023-01-13T07:57:57.520Z,101407.20
2023-01-13T08:00:24.380Z,101406.02
2023-01-13T08:02:51.168Z,101406.76
2023-01-13T08:05:18.343Z,101413.92
2023-01-13T08:07:44.998Z,101413.06
2023-01-13T08:10:11.882Z,101400.95
2023-01-13T08:12:57.376Z,101403.30
2023-01-13T08:15:23.987Z,101410.70
2023-01-13T08:17:50.602Z,101411.10
2023-01-13T08:20:17.383Z,101416.22
2023-01-13T08:22:44.448Z,101415.14
2023-01-13T08:25:11.081Z,101415.98
2023-01-13T08:27:37.971Z,101412.49
2023-01-13T08:30:05.899Z,101408.24
2023-01-13T08:32:32.717Z,101412.02
2023-01-13T08:34:59.298Z,101413.62
2023-01-13T08:37:26.012Z,101408.46
2023-01-13T08:39:52.648Z,101408.18
2023-01-13T08:42:19.456Z,101406.55
2023-01-13T08:44:46.052Z,101397.52
2023-01-13T08:47:12.703Z,101394.00
2023-01-13T08:49:39.298Z,101395.73
2023-01-13T08:52:06.042Z,101396.70
2023-01-13T08:54:32.690Z,101387.17
2023-01-13T08:56:59.292Z,101389.73
2023-01-13T08:59:26.243Z,101394.38
2023-01-13T09:01:53.155Z,101394.05
2023-01-13T09:04:23.171Z,101396.70
2023-01-13T09:06:51.149Z,101398.45
2023-01-13T09:09:17.929Z,101397.84
2023-01-13T09:12:05.662Z,101399.44
2023-01-13T09:14:35.174Z,101392.75
2023-01-13T09:17:02.236Z,101395.38
2023-01-13T09:19:29.921Z,101394.36
2023-01-13T09:21:57.265Z,101403.05
2023-01-13T09:24:24.913Z,101408.98
2023-01-13T09:26:51.615Z,101415.63
2023-01-13T09:29:18.858Z,101417.02
2023-01-13T09:31:45.992Z,101417.16
2023-01-13T09:34:38.690Z,101418.23
2023-01-13T09:37:06.945Z,101423.91
2023-01-13T09:39:34.822Z,101425.75
2023-01-13T09:42:44.290Z,101426.29
2023-01-13T09:45:17.027Z,101426.77
2023-01-13T09:47:46.347Z,101410.13
2023-01-13T09:50:22.144Z,101399.42
2023-01-13T09:52:49.168Z,101391.73
2023-01-13T09:55:26.832Z,101387.42
2023-01-13T09:57:53.449Z,101382.92
2023-01-13T10:00:28.897Z,101378.23
2023-01-13T10:03:22.658Z,101375.24
2023-01-13T10:06:17.183Z,101370.42
2023-01-13T10:08:47.141Z,101373.48
2023-01-13T10:11:40.880Z,101365.33
2023-01-13T10:14:19.112Z,101358.06
2023-01-13T10:16:48.514Z,101365.28
2023-01-13T10:19:22.830Z,101368.58
2023-01-13T10:22:04.957Z,101362.40
2023-01-13T10:24:34.515Z,101352.09
2023-01-13T10:27:01.194Z,101347.58
2023-01-13T10:29:28.723Z,101348.44
2023-01-13T10:31:57.320Z,101347.66
2023-01-13T10:34:25.407Z,101345.39
2023-01-13T10:37:09.831Z,101339.00
2023-01-13T10:39:46.197Z,101335.97
2023-01-13T10:42:16.083Z,101339.38
2023-01-13T10:45:00.643Z,101337.23
2023-01-13T10:47:34.433Z,101335.73
2023-01-13T10:50:13.169Z,101333.73
2023-01-13T10:52:55.938Z,101332.07
2023-01-13T10:55:32.041Z,101326.65
2023-01-13T10:58:18.668Z,101320.75
2023-01-13T11:00:47.287Z,101324.17
2023-01-13T11:03:15.735Z,101323.11
2023-01-13T11:05:50.359Z,101320.10
2023-01-13T11:08:32.099Z,101314.57
2023-01-13T11:10:59.767Z,101310.85
2023-01-13T11:13:57.815Z,101303.01
2023-01-13T11:16:25.904Z,101299.86
2023-01-13T11:19:14.221Z,101301.70
2023-01-13T11:21:52.343Z,101304.23
2023-01-13T11:24:26.034Z,101298.81
2023-01-13T11:27:13.009Z,101294.86
2023-01-13T11:30:01.978Z,101290.73
2023-01-13T11:32:33.736Z,101286.94
2023-01-13T11:35:20.584Z,101285.44
2023-01-13T11:37:58.464Z,101289.73
2023-01-13T11:40:32.898Z,101294.57
2023-01-13T11:43:02.419Z,101292.30
2023-01-13T11:45:46.438Z,101295.14
2023-01-13T11:48:17.563Z,101295.02
2023-01-13T11:51:09.313Z,101289.26
2023-01-13T11:53:42.106Z,101283.83
2023-01-13T11:56:18.122Z,101287.58
2023-01-13T11:59:07.947Z,101282.27
2023-01-13T12:01:45.003Z,101275.64
2023-01-13T12:04:34.077Z,101281.09
2023-01-13T12:07:17.794Z,101275.71
2023-01-13T12:10:03.747Z,101267.52
2023-01-13T12:12:35.205Z,101262.09
2023-01-13T12:15:22.555Z,101256.90
2023-01-13T12:18:16.911Z,101253.23
2023-01-13T12:20:58.623Z,101249.86
2023-01-13T12:23:32.476Z,101253.58
2023-01-13T12:26:05.328Z,101245.84
2023-01-13T12:28:43.022Z,101239.58
2023-01-13T12:31:10.618Z,101241.77
2023-01-13T12:34:04.977Z,101234.63
2023-01-13T12:36:54.912Z,101232.90
2023-01-13T12:39:49.535Z,101223.64
2023-01-13T12:42:45.911Z,101223.60
2023-01-13T12:45:12.522Z,101218.38
2023-01-13T12:47:43.772Z,101217.94
2023-01-13T12:50:22.917Z,101214.86
2023-01-13T12:52:51.294Z,101210.66
2023-01-13T12:55:26.278Z,101215.35
2023-01-13T12:58:05.878Z,101213.92
2023-01-13T13:00:42.006Z,101213.05
2023-01-13T13:03:12.471Z,101206.23
2023-01-13T13:06:03.855Z,101205.73
2023-01-13T13:08:44.780Z,101204.29
2023-01-13T13:11:33.415Z,101196.58
2023-01-13T13:14:02.686Z,101187.02
2023-01-13T13:16:30.077Z,101188.58
2023-01-13T13:19:18.584Z,101193.33
2023-01-13T13:22:14.068Z,101195.75
2023-01-13T13:24:43.130Z,101192.19
2023-01-13T13:27:21.962Z,101192.39
2023-01-13T13:29:58.195Z,101189.05
2023-01-13T13:32:49.975Z,101186.92
2023-01-13T13:35:41.539Z,101179.34
2023-01-13T13:38:48.605Z,101190.24
2023-01-13T13:41:39.969Z,101189.54
2023-01-13T13:44:39.481Z,101191.73
2023-01-13T13:47:07.564Z,101185.27
2023-01-13T13:49:36.073Z,101185.07
2023-01-13T13:52:12.356Z,101186.55
2023-01-13T13:54:43.294Z,101186.08
2023-01-13T13:57:17.941Z,101190.21
2023-01-13T13:59:45.031Z,101184.91
2023-01-13T14:02:20.809Z,101181.54
2023-01-13T14:04:48.027Z,101175.94
2023-01-13T14:07:21.044Z,101173.75
2023-01-13T14:09:54.472Z,101175.84
2023-01-13T14:12:27.269Z,101170.51
2023-01-13T14:14:56.926Z,101172.73
2023-01-13T14:17:31.183Z,101172.73
2023-01-13T14:20:02.700Z,101171.59
2023-01-13T14:22:29.373Z,101179.68
2023-01-13T14:24:57.842Z,101181.91
2023-01-13T14:27:27.785Z,101183.96
2023-01-13T14:29:58.139Z,101181.27
2023-01-13T14:32:32.341Z,101190.17
2023-01-13T14:34:59.357Z,101196.04
2023-01-13T14:37:33.418Z,101202.04
2023-01-13T14:40:00.083Z,101201.02
2023-01-13T14:42:28.735Z,101193.60
2023-01-13T14:44:56.442Z,101188.13
2023-01-13T14:47:28.130Z,101187.49
2023-01-13T14:50:16.637Z,101194.36
2023-01-13T14:52:49.986Z,101190.47
2023-01-13T14:55:40.913Z,101186.34
2023-01-13T14:58:17.103Z,101193.17
2023-01-13T15:00:43.755Z,101193.86
2023-01-13T15:03:13.793Z,101188.95
2023-01-13T15:05:45.820Z,101195.17
2023-01-13T15:08:14.020Z,101193.02
2023-01-13T15:10:52.787Z,101187.73
2023-01-13T15:13:27.045Z,101195.14
2023-01-13T15:15:57.059Z,101195.06
2023-01-13T15:18:23.968Z,101194.94
2023-01-13T15:20:53.297Z,101202.45
2023-01-13T15:23:20.448Z,101200.72
2023-01-13T15:25:49.175Z,101205.89
2023-01-13T15:28:23.292Z,101206.02
2023-01-13T15:30:52.948Z,101203.59
2023-01-13T15:33:21.228Z,101200.64
2023-01-13T15:35:50.833Z,101200.77
2023-01-13T15:38:21.366Z,101208.16
2023-01-13T15:40:49.547Z,101204.80
2023-01-13T15:43:40.645Z,101199.42
2023-01-13T15:46:32.472Z,101197.24
2023-01-13T15:49:13.951Z,101196.27
2023-01-13T15:51:40.539Z,101195.26
2023-01-13T15:54:08.125Z,101201.94
2023-01-13T15:56:37.286Z,101204.29
2023-01-13T15:59:05.602Z,101203.02
2023-01-13T16:01:32.392Z,101207.98
2023-01-13T16:03:59.121Z,101217.94
2023-01-13T16:06:36.167Z,101220.17
2023-01-13T16:09:04.472Z,101227.39
2023-01-13T16:11:31.411Z,101240.64
2023-01-13T16:13:58.330Z,101238.69
2023-01-13T16:16:27.771Z,101246.00
2023-01-13T16:18:55.221Z,101247.88
2023-01-13T16:21:23.108Z,101235.91
2023-01-13T16:23:50.986Z,101235.27
2023-01-13T16:26:29.959Z,101237.95
2023-01-13T16:28:58.099Z,101230.77
2023-01-13T16:31:33.032Z,101230.63
2023-01-13T16:34:01.548Z,101231.80
2023-01-13T16:36:30.363Z,101236.73
2023-01-13T16:38:57.199Z,101246.38
2023-01-13T16:41:25.146Z,101246.05
2023-01-13T16:43:51.950Z,101255.17
2023-01-13T16:46:23.521Z,101263.46
2023-01-13T16:48:53.003Z,101262.16
2023-01-13T16:51:21.027Z,101263.21
2023-01-13T16:53:48.350Z,101263.30
2023-01-13T16:56:47.164Z,101266.41
2023-01-13T16:59:14.685Z,101273.40
2023-01-13T17:01:43.307Z,101265.74
2023-01-13T17:04:21.549Z,101265.11
2023-01-13T17:07:00.559Z,101276.91
2023-01-13T17:09:29.177Z,101283.73
2023-01-13T17:11:56.671Z,101276.08
2023-01-13T17:14:24.220Z,101273.14
2023-01-13T17:16:53.966Z,101279.30
2023-01-13T17:19:23.228Z,101285.38
2023-01-13T17:21:51.143Z,101294.70
2023-01-13T17:24:18.484Z,101295.98
2023-01-13T17:26:50.715Z,101293.98
2023-01-13T17:29:22.311Z,101294.84
2023-01-13T17:31:50.465Z,101300.01
2023-01-13T17:34:17.523Z,101299.27
2023-01-13T17:36:44.192Z,101292.37
2023-01-13T17:39:21.908Z,101292.65
2023-01-13T17:41:51.193Z,101291.95
2023-01-13T17:44:20.542Z,101295.47
2023-01-13T17:46:47.795Z,101303.38
2023-01-13T17:49:16.773Z,101299.51
2023-01-13T17:51:44.909Z,101294.95
2023-01-13T17:54:12.546Z,101295.77
2023-01-13T17:56:41.429Z,101298.97
2023-01-13T17:59:10.559Z,101297.88
2023-01-13T18:01:38.014Z,101300.02
2023-01-13T18:04:06.612Z,101304.21
2023-01-13T18:06:33.677Z,101301.56
2023-01-13T18:09:00.842Z,101306.45
2023-01-13T18:11:27.649Z,101302.16
2023-01-13T18:13:56.870Z,101306.04
2023-01-13T18:16:25.303Z,101311.11
2023-01-13T18:18:53.762Z,101313.34
2023-01-13T18:21:42.151Z,101314.41
2023-01-13T18:24:32.461Z,101317.30
2023-01-13T18:27:18.865Z,101316.86
2023-01-13T18:29:46.557Z,101323.52
2023-01-13T18:32:14.350Z,101320.35
2023-01-13T18:34:41.330Z,101326.94
2023-01-13T18:37:10.144Z,101330.88
2023-01-13T18:39:37.507Z,101333.80
2023-01-13T18:42:27.495Z,101333.75
2023-01-13T18:44:56.993Z,101335.23
2023-01-13T18:47:29.374Z,101336.56
2023-01-13T18:49:57.064Z,101338.16
2023-01-13T18:52:25.032Z,101342.41
2023-01-13T18:54:51.957Z,101343.03
2023-01-13T18:57:19.002Z,101344.33
2023-01-13T18:59:45.677Z,101349.22
2023-01-13T19:02:18.101Z,101352.94
2023-01-13T19:04:45.187Z,101355.72
2023-01-13T19:07:13.255Z,101353.60
2023-01-13T19:09:42.110Z,101354.86
2023-01-13T19:12:10.436Z,101361.56
2023-01-13T19:14:37.911Z,101362.67
2023-01-13T19:17:06.507Z,101361.27
2023-01-13T19:19:33.241Z,101360.83
2023-01-13T19:22:00.117Z,101373.46
2023-01-13T19:24:26.865Z,101375.06
2023-01-13T19:26:54.639Z,101373.83
2023-01-13T19:29:22.064Z,101372.92
2023-01-13T19:31:48.809Z,101366.35
2023-01-13T19:34:16.218Z,101368.22
2023-01-13T19:36:42.987Z,101371.09
2023-01-13T19:39:10.401Z,101374.10
2023-01-13T19:41:56.396Z,101373.30
2023-01-13T19:44:41.614Z,101378.59
2023-01-13T19:47:08.299Z,101376.90
2023-01-13T19:49:34.972Z,101376.19
2023-01-13T19:52:01.590Z,101370.20
2023-01-13T19:54:28.259Z,101371.63
2023-01-13T19:56:54.870Z,101373.07
2023-01-13T19:59:28.966Z,101372.44
2023-01-13T20:01:57.572Z,101372.94
2023-01-13T20:04:38.479Z,101376.15
2023-01-13T20:07:06.315Z,101376.27
2023-01-13T20:09:34.314Z,101382.25
2023-01-13T20:12:07.849Z,101384.29
2023-01-13T20:14:34.633Z,101377.50
2023-01-13T20:17:01.372Z,101375.05
2023-01-13T20:19:28.025Z,101381.41
2023-01-13T20:21:54.615Z,101379.90
2023-01-13T20:24:21.482Z,101368.19
2023-01-13T20:26:48.447Z,101371.20
2023-01-13T20:29:16.476Z,101375.86
2023-01-13T20:31:45.603Z,101372.73
2023-01-13T20:34:16.734Z,101374.35
2023-01-13T20:36:46.434Z,101379.41
2023-01-13T20:39:28.911Z,101383.58
2023-01-13T20:42:16.973Z,101382.61
2023-01-13T20:44:50.277Z,101370.21
2023-01-13T20:47:17.514Z,101373.21
2023-01-13T20:49:44.683Z,101373.06
2023-01-13T20:52:13.468Z,101374.92
2023-01-13T20:54:43.300Z,101374.63
2023-01-13T20:57:11.432Z,101364.73
2023-01-13T20:59:40.677Z,101369.23
2023-01-13T21:02:15.229Z,101372.79
2023-01-13T21:04:43.973Z,101366.92
2023-01-13T21:07:12.751Z,101372.82
2023-01-13T21:09:42.214Z,101375.68
2023-01-13T21:12:32.948Z,101370.42
2023-01-13T21:15:18.770Z,101368.00
2023-01-13T21:18:06.408Z,101359.83
2023-01-13T21:20:35.995Z,101362.60
2023-01-13T21:23:05.432Z,101369.74
2023-01-13T21:25:35.493Z,101378.56
2023-01-13T21:28:11.582Z,101389.42
2023-01-13T21:30:39.668Z,101386.06
2023-01-13T21:33:06.483Z,101385.62
2023-01-13T21:35:33.930Z,101386.02
2023-01-13T21:38:00.581Z,101389.50
2023-01-13T21:40:27.305Z,101392.29
2023-01-13T21:43:13.034Z,101396.65
2023-01-13T21:45:58.171Z,101400.98
2023-01-13T21:48:25.019Z,101396.78
2023-01-13T21:50:51.617Z,101393.83
2023-01-13T21:53:18.251Z,101393.73
2023-01-13T21:55:44.857Z,101396.17
2023-01-13T21:58:14.298Z,101401.92
2023-01-13T22:00:42.902Z,101395.58
2023-01-13T22:03:11.794Z,101397.05
2023-01-13T22:05:38.869Z,101406.47
2023-01-13T22:08:06.131Z,101416.01
2023-01-13T22:10:33.960Z,101418.30
2023-01-13T22:13:22.865Z,101411.02
2023-01-13T22:15:50.026Z,101411.67
2023-01-13T22:18:18.335Z,101412.17
2023-01-13T22:20:46.038Z,101421.91
2023-01-13T22:23:12.704Z,101422.82
2023-01-13T22:25:39.352Z,101418.91
2023-01-13T22:28:08.620Z,101419.02
2023-01-13T22:30:35.225Z,101423.23
2023-01-13T22:33:01.829Z,101430.29
2023-01-13T22:35:28.488Z,101425.10
2023-01-13T22:37:55.140Z,101429.52
2023-01-13T22:40:21.725Z,101429.05
2023-01-13T22:42:48.507Z,101430.29
2023-01-13T22:45:15.191Z,101426.20
2023-01-13T22:47:41.911Z,101422.95
2023-01-13T22:50:09.313Z,101424.41
2023-01-13T22:52:36.377Z,101430.16
2023-01-13T22:55:03.809Z,101430.54
2023-01-13T22:57:35.915Z,101418.16
2023-01-13T23:00:09.926Z,101411.77
2023-01-13T23:02:38.227Z,101412.44
2023-01-13T23:05:05.228Z,101420.55
2023-01-13T23:07:31.893Z,101419.41
2023-01-13T23:09:58.510Z,101418.02
2023-01-13T23:12:25.195Z,101423.39
2023-01-13T23:14:51.695Z,101425.12
2023-01-13T23:17:18.344Z,101433.98
2023-01-13T23:19:44.955Z,101438.52
2023-01-13T23:22:13.052Z,101439.50
2023-01-13T23:24:39.706Z,101440.65
2023-01-13T23:27:06.331Z,101440.05
2023-01-13T23:29:32.978Z,101460.17
2023-01-13T23:31:59.674Z,101469.50
2023-01-13T23:34:26.423Z,101463.82
2023-01-13T23:36:52.914Z,101468.92
2023-01-13T23:39:19.490Z,101467.44
2023-01-13T23:41:46.141Z,101466.40
2023-01-13T23:44:12.724Z,101466.17
2023-01-13T23:46:39.410Z,101464.41
2023-01-13T23:49:06.033Z,101472.43
2023-01-13T23:51:33.277Z,101472.67
2023-01-13T23:53:59.964Z,101476.30
2023-01-13T23:56:29.588Z,101482.90
2023-01-13T23:58:56.896Z,101483.34
